Time;durP1;ratioP1;P1;durP2;ratioP2;P2;SDS_P1;SDS_P2;PMS_P1;PMS_P2;Temp;Humidity;BMP_temperature;BMP_pressure;BME280_temperature;BME280_humidity;BME280_pressure;Samples;Min_cycle;Max_cycle;Signal;HPM_P1;HPM_P2
2021/12/04 00:00:26;;;;;;;37.72;11.05;;;;;;;10.10;68.64;99284.91;4802315;29;120248;-83
2021/12/04 00:02:52;;;;;;;30.50;11.07;;;;;;;10.18;68.50;99298.97;4829133;28;122212;-85
2021/12/04 00:05:20;;;;;;;35.53;10.63;;;;;;;10.15;68.43;99295.91;4834541;28;123770;-84
2021/12/04 00:07:46;;;;;;;39.53;10.45;;;;;;;10.12;68.56;99291.41;4784326;29;119834;-85
2021/12/04 00:10:18;;;;;;;45.90;11.20;;;;;;;10.03;68.33;99290.81;4787331;29;122283;-86
2021/12/04 00:12:44;;;;;;;39.15;11.38;;;;;;;9.90;68.23;99274.69;4800660;29;122884;-84
2021/12/04 00:15:11;;;;;;;31.42;9.68;;;;;;;9.97;68.21;99285.25;4829777;28;121173;-83
2021/12/04 00:17:36;;;;;;;36.65;10.30;;;;;;;9.82;68.25;99279.84;4800506;29;123031;-84
2021/12/04 00:20:07;;;;;;;31.00;9.38;;;;;;;9.91;68.35;99298.13;4820988;29;120749;-84
2021/12/04 00:22:33;;;;;;;35.47;9.38;;;;;;;9.89;68.60;99295.09;4813545;29;122714;-84
2021/12/04 00:24:59;;;;;;;32.85;9.05;;;;;;;9.87;68.58;99296.81;4796075;29;120128;-84
2021/12/04 00:27:27;;;;;;;31.25;9.70;;;;;;;9.72;68.82;99275.00;4800770;29;119666;-84
2021/12/04 00:29:56;;;;;;;32.60;8.15;;;;;;;9.87;68.37;99297.56;4784541;29;121779;-84
2021/12/04 00:32:28;;;;;;;32.50;8.68;;;;;;;9.71;68.40;99271.50;4795172;29;123284;-82
2021/12/04 00:35:07;;;;;;;23.98;6.93;;;;;;;9.71;68.52;99268.00;4842409;28;120266;-84
2021/12/04 00:37:50;;;;;;;36.80;7.25;;;;;;;9.83;69.23;99286.81;4821878;29;120722;-84
2021/12/04 00:51:14;;;;;;;32.92;5.32;;;;;;;9.90;68.57;99298.59;4823014;28;122454;-83
2021/12/04 00:53:43;;;;;;;31.73;4.80;;;;;;;9.76;68.48;99270.06;4801105;29;122488;-84
2021/12/04 00:56:14;;;;;;;32.35;4.50;;;;;;;9.90;68.00;99288.38;4816018;29;119697;-87
2021/12/04 00:58:39;;;;;;;39.20;5.45;;;;;;;9.76;68.25;99281.75;4813907;29;122231;-86
2021/12/04 01:01:05;;;;;;;26.63;5.55;;;;;;;9.85;67.91;99291.81;4805870;29;121284;-86
2021/12/04 01:03:34;;;;;;;35.15;5.53;;;;;;;9.78;68.33;99281.28;4815775;29;122115;-86
2021/12/04 01:06:00;;;;;;;21.95;4.40;;;;;;;9.87;68.64;99299.56;4800233;29;121570;-87
2021/12/04 01:08:26;;;;;;;30.40;4.78;;;;;;;9.81;67.96;99292.03;4787968;29;119449;-85
2021/12/04 01:10:55;;;;;;;26.02;4.38;;;;;;;9.81;67.86;99294.00;4815330;29;120174;-86
2021/12/04 01:13:25;;;;;;;27.63;4.80;;;;;;;9.85;67.68;99306.25;4810121;29;121496;-84
2021/12/04 01:15:53;;;;;;;40.05;5.30;;;;;;;9.74;68.09;99297.16;4812100;29;120337;-86
2021/12/04 01:18:19;;;;;;;37.22;5.20;;;;;;;9.59;67.72;99278.03;4803537;29;122343;-88
2021/12/04 01:20:45;;;;;;;35.10;5.65;;;;;;;9.59;67.29;99280.78;4811886;29;119556;-88
2021/12/04 01:23:21;;;;;;;23.13;4.53;;;;;;;9.61;67.44;99286.53;4794370;29;122283;-87
2021/12/04 01:25:50;;;;;;;40.58;5.65;;;;;;;9.66;67.28;99299.53;4801867;29;120416;-88
2021/12/04 01:28:19;;;;;;;35.67;5.70;;;;;;;9.57;67.59;99294.19;4801970;29;120028;-86
2021/12/04 01:30:45;;;;;;;30.45;7.00;;;;;;;9.54;67.54;99292.41;4790907;29;122063;-86
2021/12/04 01:33:11;;;;;;;37.70;6.00;;;;;;;9.50;67.77;99292.59;4797051;29;122887;-85
2021/12/04 01:35:37;;;;;;;47.20;6.20;;;;;;;9.42;68.12;99288.00;4799567;29;119592;-86
2021/12/04 01:38:02;;;;;;;35.63;6.28;;;;;;;9.22;68.13;99255.84;4801651;29;122447;-85
2021/12/04 01:40:28;;;;;;;21.85;6.00;;;;;;;9.51;67.91;99293.38;4802323;29;123067;-86
2021/12/04 01:42:57;;;;;;;28.73;5.25;;;;;;;9.43;67.84;99289.50;4828470;28;121883;-83
2021/12/04 01:45:23;;;;;;;37.45;5.45;;;;;;;9.41;67.81;99300.16;4817667;29;123576;-85
2021/12/04 01:47:48;;;;;;;27.50;5.22;;;;;;;9.25;67.46;99292.47;4827841;28;119670;-84
2021/12/04 01:50:14;;;;;;;30.65;5.25;;;;;;;9.32;67.49;99311.22;4798866;29;120362;-85
2021/12/04 01:52:43;;;;;;;31.20;5.50;;;;;;;9.24;67.75;99302.66;4813617;29;122929;-87
2021/12/04 01:55:10;;;;;;;38.42;6.05;;;;;;;9.09;67.53;99296.44;4814834;29;120937;-85
2021/12/04 01:57:38;;;;;;;22.88;6.38;;;;;;;9.11;67.28;99307.66;4802525;29;121309;-86
2021/12/04 02:00:06;;;;;;;30.92;5.95;;;;;;;9.12;67.73;99320.88;4819779;29;120737;-88
2021/12/04 02:02:39;;;;;;;39.00;6.38;;;;;;;8.96;67.36;99304.94;4817195;29;124242;-86
2021/12/04 02:05:05;;;;;;;35.90;7.22;;;;;;;8.83;67.37;99285.34;4814109;29;123456;-86
2021/12/04 02:07:31;;;;;;;38.17;7.32;;;;;;;8.56;67.35;99254.31;4812947;29;120174;-84
2021/12/04 02:09:57;;;;;;;43.20;8.25;;;;;;;8.84;67.09;99303.25;4783236;29;122060;-87
2021/12/04 02:12:22;;;;;;;30.52;7.30;;;;;;;8.86;66.99;99306.25;4798813;29;120562;-86
2021/12/04 02:14:48;;;;;;;52.67;9.43;;;;;;;8.91;67.44;99330.22;4799595;29;119630;-89
2021/12/04 02:17:14;;;;;;;55.40;10.57;;;;;;;8.57;67.43;99277.69;4796226;29;121716;-85
2021/12/04 02:19:40;;;;;;;45.20;9.73;;;;;;;8.74;67.90;99310.00;4811290;29;123001;-86
2021/12/04 02:22:06;;;;;;;38.58;8.88;;;;;;;8.84;67.62;99325.13;4815572;29;119876;-86
2021/12/04 02:24:34;;;;;;;45.15;11.65;;;;;;;8.74;67.73;99321.72;4802670;29;121768;-86
2021/12/04 02:27:00;;;;;;;35.05;9.65;;;;;;;8.79;67.53;99329.28;4813085;29;119848;-85
2021/12/04 02:29:26;;;;;;;32.95;12.23;;;;;;;8.65;67.56;99312.84;4785919;29;122236;-85
2021/12/04 02:31:56;;;;;;;56.60;12.20;;;;;;;8.75;67.58;99338.88;4812912;29;122634;-86
2021/12/04 02:34:23;;;;;;;56.80;12.70;;;;;;;8.59;67.75;99318.97;4817222;29;121073;-86
2021/12/04 02:36:49;;;;;;;38.03;11.50;;;;;;;8.68;68.14;99339.25;4813794;29;121927;-86
2021/12/04 02:39:31;;;;;;;40.63;12.48;;;;;;;8.53;67.66;99323.59;4796575;29;120170;-86
2021/12/04 02:41:58;;;;;;;48.20;13.70;;;;;;;8.61;68.30;99335.66;4802172;29;120362;-87
2021/12/04 02:44:36;;;;;;;29.95;12.05;;;;;;;8.64;68.09;99336.69;4796289;29;122374;-85
2021/12/04 02:47:06;;;;;;;40.42;12.25;;;;;;;8.65;68.26;99326.50;4827079;29;124003;-87
2021/12/04 02:49:32;;;;;;;58.13;13.88;;;;;;;8.52;67.92;99316.63;4810004;29;122989;-86
2021/12/04 02:52:02;;;;;;;71.32;15.40;;;;;;;8.61;67.59;99327.47;4829082;28;120559;-87
2021/12/04 02:54:29;;;;;;;38.90;14.07;;;;;;;8.54;67.81;99316.16;4798926;29;119460;-86
2021/12/04 02:56:57;;;;;;;53.17;13.27;;;;;;;8.44;67.76;99304.53;4810676;29;121104;-86
2021/12/04 02:59:24;;;;;;;35.47;13.85;;;;;;;8.41;67.58;99304.72;4811376;29;120314;-87
2021/12/04 03:01:53;;;;;;;36.25;14.00;;;;;;;8.52;68.26;99318.59;4818755;29;119865;-86
2021/12/04 03:04:19;;;;;;;38.75;13.23;;;;;;;8.42;67.74;99312.44;4782443;29;122439;-87
2021/12/04 03:06:47;;;;;;;29.75;12.32;;;;;;;8.00;67.89;99245.06;4803096;29;122960;-86
2021/12/04 03:09:14;;;;;;;26.55;11.88;;;;;;;8.47;67.82;99321.94;4817993;29;119408;-86
2021/12/04 03:11:41;;;;;;;44.30;13.18;;;;;;;8.12;68.08;99267.88;4811026;29;123078;-86
2021/12/04 03:14:07;;;;;;;36.00;13.82;;;;;;;8.36;68.23;99303.38;4808085;29;119561;-87
2021/12/04 03:16:35;;;;;;;37.15;13.35;;;;;;;8.40;68.22;99303.94;4801811;29;122353;-87
2021/12/04 03:19:02;;;;;;;46.28;14.23;;;;;;;8.40;68.93;99303.94;4800272;29;122702;-86
2021/12/04 03:21:28;;;;;;;48.20;14.07;;;;;;;8.22;68.35;99276.75;4817314;29;119911;-87
2021/12/04 03:24:14;;;;;;;33.53;12.63;;;;;;;8.39;68.93;99307.91;4826380;29;120673;-88
2021/12/04 03:26:40;;;;;;;29.15;12.02;;;;;;;8.14;68.63;99259.22;4827605;28;123201;-88
2021/12/04 03:29:13;;;;;;;44.50;14.90;;;;;;;8.57;68.71;99321.44;4788906;29;120103;-88
2021/12/04 03:42:30;;;;;;;46.28;17.70;;;;;;;8.64;68.84;99301.16;4818521;29;120055;-86
2021/12/04 03:44:59;;;;;;;48.03;18.33;;;;;;;8.56;69.45;99289.09;4797899;29;122270;-86
2021/12/04 03:47:25;;;;;;;77.65;20.70;;;;;;;8.32;69.60;99256.34;4801543;29;121665;-85
2021/12/04 03:49:52;;;;;;;54.83;20.98;;;;;;;8.67;69.18;99313.13;4814687;28;119707;-87
2021/12/04 03:52:18;;;;;;;58.40;21.75;;;;;;;8.27;69.36;99248.78;4819483;29;126682;-83
2021/12/04 03:54:44;;;;;;;82.60;25.13;;;;;;;8.77;69.24;99329.00;4824499;29;119531;-87
2021/12/04 03:57:12;;;;;;;64.55;23.13;;;;;;;8.77;69.22;99339.19;4798993;29;119865;-87
2021/12/04 03:59:41;;;;;;;69.95;24.50;;;;;;;8.82;69.78;99335.78;4800207;29;120222;-86
2021/12/04 04:02:09;;;;;;;62.45;26.00;;;;;;;8.86;69.82;99334.38;4785590;29;120007;-86
2021/12/04 04:04:35;;;;;;;80.78;28.20;;;;;;;8.91;69.69;99330.22;4788314;29;122077;-86
2021/12/04 04:07:00;;;;;;;60.55;26.80;;;;;;;8.85;69.75;99316.44;4819227;29;123017;-85
2021/12/04 04:09:30;;;;;;;74.75;30.05;;;;;;;8.86;69.72;99317.97;4841568;28;120174;-84
2021/12/04 04:11:59;;;;;;;69.35;31.90;;;;;;;8.97;69.88;99325.59;4801131;29;119619;-86
2021/12/04 04:14:25;;;;;;;82.55;33.90;;;;;;;8.96;70.30;99315.88;4801867;29;123299;-85
2021/12/04 04:16:54;;;;;;;78.90;33.22;;;;;;;9.12;70.01;99350.97;4834841;28;119699;-87
2021/12/04 04:19:21;;;;;;;73.75;34.60;;;;;;;9.11;69.97;99330.31;4799947;29;123509;-86
2021/12/04 04:21:52;;;;;;;85.65;37.08;;;;;;;9.15;70.38;99325.38;4800085;29;121127;-87
2021/12/04 04:24:18;;;;;;;76.40;36.75;;;;;;;9.15;70.93;99316.44;4808507;29;119782;-87
2021/12/04 04:26:44;;;;;;;83.82;37.65;;;;;;;8.91;70.55;99270.81;4793446;29;123464;-87
2021/12/04 04:29:12;;;;;;;80.57;38.47;;;;;;;9.43;70.63;99341.50;4800607;29;120066;-87
2021/12/04 04:31:49;;;;;;;86.32;39.38;;;;;;;9.48;70.67;99335.38;4820706;29;120165;-87
2021/12/04 04:34:35;;;;;;;105.40;42.08;;;;;;;9.49;70.71;99321.22;4815204;29;123084;-86
2021/12/04 04:37:22;;;;;;;89.85;40.90;;;;;;;9.48;70.58;99322.44;4824335;29;119697;-86
2021/12/04 05:01:32;;;;;;;113.55;52.40;;;;;;;9.76;70.61;99331.03;4834046;28;122303;-82
2021/12/04 05:12:23;;;;;;;118.43;51.58;;;;;;;9.83;69.83;99333.38;4815535;29;121513;-83
2021/12/04 05:14:55;;;;;;;106.57;46.95;;;;;;;9.91;70.10;99344.69;4816817;29;122632;-85
2021/12/04 05:20:19;;;;;;;94.95;45.67;;;;;;;9.90;70.61;99339.69;4799993;29;119927;-86
2021/12/04 05:22:45;;;;;;;106.03;46.92;;;;;;;9.92;70.11;99345.44;4797998;29;121201;-85
2021/12/04 05:25:11;;;;;;;107.28;48.08;;;;;;;9.84;70.56;99336.88;4827611;28;119550;-86
2021/12/04 05:27:36;;;;;;;108.75;48.22;;;;;;;9.88;70.02;99337.41;4785655;29;122298;-86
2021/12/04 05:30:04;;;;;;;100.78;47.88;;;;;;;10.03;69.84;99356.53;4779856;29;123489;-85
2021/12/04 05:32:32;;;;;;;103.60;46.90;;;;;;;9.89;69.72;99338.91;4814880;29;119765;-85
2021/12/04 05:34:58;;;;;;;107.38;46.90;;;;;;;10.06;69.82;99358.31;4791391;29;122471;-84
2021/12/04 05:37:23;;;;;;;104.03;46.00;;;;;;;9.95;69.63;99337.03;4810146;29;119816;-83
2021/12/04 05:39:49;;;;;;;111.78;46.35;;;;;;;9.93;69.65;99341.44;4816368;29;119785;-83
2021/12/04 05:42:15;;;;;;;99.93;45.63;;;;;;;10.01;69.78;99356.28;4785451;29;122157;-84
2021/12/04 05:44:42;;;;;;;101.75;44.70;;;;;;;9.99;69.67;99354.00;4821400;29;122733;-83
2021/12/04 05:47:16;;;;;;;121.45;46.70;;;;;;;10.05;69.58;99354.84;4815484;29;121943;-84
2021/12/04 05:55:28;;;;;;;101.85;46.95;;;;;;;10.07;69.27;99357.09;4807864;29;119843;-84
2021/12/04 05:57:53;;;;;;;98.35;46.05;;;;;;;10.05;69.00;99357.56;4811533;29;122753;-84
2021/12/04 06:00:22;;;;;;;114.80;47.92;;;;;;;10.08;69.58;99366.81;4820750;29;119573;-85
2021/12/04 06:02:51;;;;;;;107.32;46.65;;;;;;;9.87;69.13;99329.69;4817091;29;119882;-86
2021/12/04 06:05:17;;;;;;;105.68;46.53;;;;;;;9.60;69.70;99295.22;4783950;29;122957;-85
2021/12/04 06:07:44;;;;;;;111.93;46.80;;;;;;;9.97;69.70;99344.78;4817912;29;121394;-85
2021/12/04 06:10:12;;;;;;;127.25;49.20;;;;;;;9.92;69.04;99339.94;4815844;29;120027;-88
2021/12/04 06:12:38;;;;;;;135.98;50.72;;;;;;;10.05;69.29;99359.56;4800538;29;119489;-87
2021/12/04 06:15:07;;;;;;;105.32;47.67;;;;;;;10.06;69.46;99364.56;4815969;29;122114;-87
2021/12/04 06:17:33;;;;;;;114.38;48.13;;;;;;;9.95;69.13;99350.72;4806101;29;120103;-87
2021/12/04 06:22:43;;;;;;;;;;;;;;;9.99;69.25;99364.97;4813007;29;122126;-84
2021/12/04 06:25:20;;;;;;;138.15;49.50;;;;;;;9.94;69.11;99365.66;4814199;29;123105;-86
2021/12/04 06:27:46;;;;;;;124.03;47.70;;;;;;;9.85;69.30;99365.75;4806891;29;120135;-84
2021/12/04 06:30:15;;;;;;;131.25;47.45;;;;;;;9.87;69.57;99368.78;4800799;29;122073;-86
2021/12/04 06:32:41;;;;;;;136.73;48.90;;;;;;;9.77;69.71;99356.44;4804709;29;121799;-85
2021/12/04 06:35:10;;;;;;;126.28;48.30;;;;;;;9.91;69.20;99376.78;4798859;29;122019;-85
2021/12/04 06:37:35;;;;;;;116.40;47.20;;;;;;;9.69;69.63;99345.13;4800685;29;123595;-87
2021/12/04 06:40:04;;;;;;;111.55;45.25;;;;;;;9.87;69.42;99379.72;4827897;28;119817;-82
2021/12/04 06:42:29;;;;;;;112.50;46.25;;;;;;;9.85;69.50;99382.19;4818463;29;122701;-86
2021/12/04 06:44:56;;;;;;;123.53;46.22;;;;;;;9.83;69.30;99379.94;4815800;29;119851;-83
2021/12/04 06:47:26;;;;;;;139.73;48.53;;;;;;;9.69;69.23;99358.81;4801724;29;120503;-86
2021/12/04 06:49:55;;;;;;;135.55;46.58;;;;;;;9.84;69.54;99380.69;4812893;29;120041;-85
2021/12/04 06:52:22;;;;;;;123.82;44.50;;;;;;;9.84;69.63;99381.44;4820027;29;121390;-86
2021/12/04 06:54:59;;;;;;;118.63;43.78;;;;;;;9.64;69.18;99356.00;4822893;29;122711;-85
2021/12/04 06:57:28;;;;;;;141.68;45.53;;;;;;;9.78;69.76;99366.91;4818679;29;120260;-84
2021/12/04 06:59:55;;;;;;;124.10;43.38;;;;;;;9.72;69.43;99360.63;4819996;29;119992;-85
2021/12/04 07:02:21;;;;;;;108.30;41.60;;;;;;;9.68;69.67;99365.50;4799993;29;122377;-86
2021/12/04 07:04:47;;;;;;;93.97;39.97;;;;;;;9.88;69.49;99380.47;4816463;29;120684;-85
2021/12/04 07:07:13;;;;;;;96.20;41.15;;;;;;;9.81;69.33;99379.66;4838884;28;120036;-85
2021/12/04 07:09:41;;;;;;;103.50;42.30;;;;;;;9.88;69.60;99383.97;4801939;29;119881;-86
2021/12/04 07:12:08;;;;;;;113.85;42.35;;;;;;;9.85;69.70;99385.69;4802066;29;120411;-83
2021/12/04 07:14:33;;;;;;;96.28;38.95;;;;;;;9.70;69.65;99357.59;4826363;29;119513;-84
2021/12/04 07:17:02;;;;;;;106.88;41.90;;;;;;;9.78;69.40;99372.41;4801831;29;123903;-84
2021/12/04 07:19:32;;;;;;;132.18;44.55;;;;;;;9.70;69.04;99363.06;4815365;29;120260;-84
2021/12/04 07:21:58;;;;;;;102.93;41.90;;;;;;;9.83;69.43;99390.88;4790118;29;121930;-84
2021/12/04 07:24:26;;;;;;;112.65;42.20;;;;;;;9.82;69.16;99388.63;4816405;29;122966;-85
2021/12/04 07:26:52;;;;;;;149.77;44.40;;;;;;;9.84;69.85;99388.91;4813956;29;119828;-85
2021/12/04 07:29:21;;;;;;;102.20;40.58;;;;;;;9.83;69.87;99390.88;4804050;29;122245;-85
2021/12/04 07:31:47;;;;;;;100.93;40.25;;;;;;;9.92;69.62;99403.69;4803530;29;123018;-85
2021/12/04 07:34:12;;;;;;;144.65;43.40;;;;;;;9.79;69.39;99379.38;4819670;29;119903;-85
2021/12/04 07:36:38;;;;;;;113.55;43.20;;;;;;;9.95;69.37;99399.28;4814040;29;121490;-87
2021/12/04 07:39:04;;;;;;;102.03;40.97;;;;;;;9.95;69.10;99402.78;4805665;29;120481;-84
2021/12/04 07:41:30;;;;;;;143.30;45.15;;;;;;;9.94;69.16;99398.53;4805002;29;121875;-85
2021/12/04 07:43:56;;;;;;;133.90;43.53;;;;;;;9.92;69.38;99397.47;4817945;29;120407;-83
2021/12/04 07:46:22;;;;;;;123.88;42.35;;;;;;;9.89;69.12;99390.22;4804025;29;120208;-87
2021/12/04 07:48:48;;;;;;;126.10;43.38;;;;;;;9.99;69.08;99397.09;4818947;29;122556;-83
2021/12/04 07:51:18;;;;;;;139.55;44.47;;;;;;;9.91;69.31;99382.25;4820863;29;120247;-83
2021/12/04 07:53:52;;;;;;;131.55;44.95;;;;;;;9.95;69.00;99388.31;4820466;29;119588;-85
2021/12/04 07:56:18;;;;;;;112.07;41.30;;;;;;;9.94;69.30;99384.06;4834363;28;122034;-84
2021/12/04 07:58:44;;;;;;;127.07;41.85;;;;;;;9.82;68.89;99372.94;4817538;29;120008;-87
2021/12/04 08:01:10;;;;;;;130.27;42.78;;;;;;;9.88;68.97;99378.50;4803355;29;121866;-85
2021/12/04 08:03:38;;;;;;;119.68;42.58;;;;;;;10.00;68.71;99393.88;4787155;29;123241;-86
2021/12/04 08:06:05;;;;;;;110.30;42.70;;;;;;;9.88;69.08;99375.75;4816682;29;122087;-86
2021/12/04 08:08:30;;;;;;;128.80;42.22;;;;;;;9.89;69.21;99382.00;4833006;28;122700;-86
2021/12/04 08:10:57;;;;;;;126.93;41.53;;;;;;;9.62;69.32;99348.25;4815907;28;123208;-86
2021/12/04 08:13:25;;;;;;;202.10;45.60;;;;;;;9.89;68.91;99384.72;4784344;29;120080;-85
2021/12/04 08:15:54;;;;;;;114.65;41.45;;;;;;;9.96;68.67;99393.31;4819769;29;121523;-86
2021/12/04 08:18:21;;;;;;;108.70;40.75;;;;;;;9.94;69.42;99395.03;4812400;29;122862;-86
2021/12/04 08:20:48;;;;;;;129.40;42.03;;;;;;;9.79;69.01;99373.91;4814631;29;122354;-86
2021/12/04 08:23:14;;;;;;;135.65;42.85;;;;;;;9.87;68.81;99387.94;4802296;29;123552;-86
2021/12/04 08:25:41;;;;;;;145.60;39.70;;;;;;;9.59;69.14;99351.19;4812126;29;119569;-85
2021/12/04 08:28:15;;;;;;;119.20;39.28;;;;;;;9.81;69.34;99390.59;4814951;29;120005;-85
2021/12/04 08:30:41;;;;;;;149.40;42.35;;;;;;;9.79;69.55;99395.06;4806124;29;122710;-85
2021/12/04 08:33:12;;;;;;;146.35;42.15;;;;;;;9.81;69.30;99398.06;4796239;29;119627;-85
2021/12/04 08:35:41;;;;;;;132.75;40.33;;;;;;;9.66;69.19;99380.91;4812456;29;122590;-86
2021/12/04 08:38:12;;;;;;;112.53;39.60;;;;;;;9.54;68.74;99353.38;4817693;29;120044;-85
2021/12/04 08:40:39;;;;;;;99.03;37.92;;;;;;;9.84;69.31;99397.13;4816440;29;119527;-85
2021/12/04 08:43:06;;;;;;;77.20;33.85;;;;;;;9.88;68.90;99402.41;4805249;29;123140;-85
2021/12/04 08:45:32;;;;;;;83.35;34.30;;;;;;;9.83;69.22;99390.13;4814266;29;119814;-86
2021/12/04 08:47:58;;;;;;;66.45;30.75;;;;;;;9.72;68.98;99370.81;4816915;29;119415;-86
2021/12/04 08:50:28;;;;;;;80.00;32.40;;;;;;;9.92;69.02;99397.47;4813654;29;120124;-86
2021/12/04 08:52:56;;;;;;;70.95;30.25;;;;;;;9.84;68.83;99397.88;4812844;29;120227;-84
2021/12/04 08:55:23;;;;;;;64.68;29.70;;;;;;;9.91;68.50;99409.66;4815252;29;121551;-84
2021/12/04 08:57:49;;;;;;;79.22;33.25;;;;;;;9.88;68.80;99405.13;4814471;29;120453;-83
2021/12/04 09:00:21;;;;;;;79.60;34.60;;;;;;;9.91;68.53;99404.94;4830170;28;120036;-85
2021/12/04 09:02:47;;;;;;;107.53;35.67;;;;;;;9.77;68.69;99384.56;4802594;29;122155;-87
2021/12/04 09:05:15;;;;;;;113.35;35.90;;;;;;;9.91;68.99;99401.44;4802094;29;120275;-85
2021/12/04 09:07:41;;;;;;;74.70;30.75;;;;;;;9.79;69.30;99384.84;4782807;29;122304;-85
2021/12/04 09:10:08;;;;;;;51.25;24.98;;;;;;;9.96;69.02;99403.53;4796760;29;123197;-82
2021/12/04 09:12:34;;;;;;;49.08;24.67;;;;;;;9.92;68.68;99403.69;4781833;29;119990;-86
2021/12/04 09:15:02;;;;;;;53.78;23.83;;;;;;;9.90;68.34;99405.41;4800769;29;121149;-84
2021/12/04 09:17:31;;;;;;;46.83;22.30;;;;;;;9.71;68.43;99385.72;4815659;29;120462;-84
2021/12/04 09:19:57;;;;;;;39.83;20.67;;;;;;;9.87;68.53;99415.34;4804670;29;120248;-83
2021/12/04 09:22:28;;;;;;;38.72;19.83;;;;;;;9.79;67.84;99403.28;4813978;29;122792;-83
2021/12/04 09:24:56;;;;;;;37.50;19.77;;;;;;;9.44;68.02;99345.72;4814005;29;122903;-86
2021/12/04 09:30:17;;;;;;;39.92;20.42;;;;;;;9.88;68.35;99405.13;4797683;29;123266;-85
2021/12/04 10:00:20;;;;;;;27.25;16.73;;;;;;;9.79;68.10;99412.25;4798711;29;123934;-83
2021/12/04 10:33:25;;;;;;;41.65;23.33;;;;;;;9.78;67.35;99377.13;4753959;29;120099;-78
2021/12/04 10:35:52;;;;;;;51.90;26.58;;;;;;;9.85;68.25;99382.94;4752575;29;122521;-82
2021/12/04 10:38:28;;;;;;;52.05;28.65;;;;;;;9.88;67.91;99380.47;4753024;29;120947;-86
2021/12/04 10:40:55;;;;;;;52.00;27.92;;;;;;;9.67;67.90;99355.78;4738634;29;122144;-84
2021/12/04 10:43:25;;;;;;;51.58;27.70;;;;;;;9.76;67.42;99368.63;4751724;29;122170;-83
2021/12/04 10:46:16;;;;;;;59.80;28.45;;;;;;;9.40;67.42;99323.28;4753059;29;120980;-82
2021/12/04 10:49:03;;;;;;;54.80;28.73;;;;;;;9.77;67.75;99387.31;4738576;29;121508;-82
2021/12/04 10:51:46;;;;;;;46.10;27.98;;;;;;;9.67;67.19;99371.47;4753019;29;122928;-82
2021/12/04 10:54:24;;;;;;;44.40;26.23;;;;;;;9.68;66.96;99378.44;4753189;29;120541;-82
2021/12/04 10:59:55;;;;;;;45.80;28.93;;;;;;;9.61;67.14;99371.38;4740956;29;123184;-83
2021/12/04 11:02:26;;;;;;;56.53;31.92;;;;;;;9.51;67.94;99359.06;4788633;29;121827;-83
2021/12/04 11:04:57;;;;;;;56.10;32.50;;;;;;;9.51;68.12;99359.81;4824456;29;123020;-84
2021/12/04 11:26:56;;;;;;;42.15;20.63;;;;;;;9.65;67.69;99369.19;4810955;28;122926;-81
2021/12/04 11:42:58;;;;;;;32.97;17.77;;;;;;;9.54;67.48;99366.31;4800466;28;123003;-83
2021/12/04 11:45:33;;;;;;;40.50;19.42;;;;;;;9.51;67.35;99365.28;4809945;28;120136;-83
2021/12/04 11:48:02;;;;;;;34.60;18.73;;;;;;;9.51;67.49;99357.06;4819155;28;122719;-81
2021/12/04 11:50:38;;;;;;;40.80;19.13;;;;;;;9.38;67.70;99339.44;4806785;28;120511;-84
2021/12/04 11:53:16;;;;;;;44.25;19.65;;;;;;;9.38;67.94;99340.19;4824894;28;119655;-85
2021/12/04 11:55:46;;;;;;;34.47;18.15;;;;;;;9.42;68.30;99331.78;4825646;28;121945;-83
2021/12/04 11:58:39;;;;;;;36.85;20.38;;;;;;;9.53;67.97;99342.91;4825755;28;120169;-87
2021/12/04 12:01:20;;;;;;;44.53;20.37;;;;;;;9.58;68.17;99352.41;4809686;29;119797;-85
2021/12/04 12:03:53;;;;;;;32.42;18.00;;;;;;;9.56;67.00;99344.69;4794457;29;123412;-84
2021/12/04 12:06:29;;;;;;;36.95;18.95;;;;;;;9.40;67.82;99317.81;4812378;29;120398;-85
2021/12/04 12:09:26;;;;;;;38.05;18.75;;;;;;;9.30;67.55;99311.72;4824226;29;122478;-86
2021/12/04 12:11:59;;;;;;;31.80;18.52;;;;;;;9.53;66.93;99337.44;4767680;29;121345;-85
2021/12/04 12:14:50;;;;;;;36.35;20.05;;;;;;;9.49;67.48;99334.13;4796279;29;122052;-87
2021/12/04 12:17:29;;;;;;;41.28;20.88;;;;;;;9.46;67.57;99341.31;4793314;29;121403;-81
2021/12/04 12:19:54;;;;;;;43.28;21.10;;;;;;;9.40;68.03;99336.97;4811952;29;119561;-84
2021/12/04 12:25:29;;;;;;;37.40;20.23;;;;;;;9.53;67.80;99351.88;4810389;29;121434;-85
2021/12/04 12:36:17;;;;;;;43.03;21.00;;;;;;;9.64;68.26;99370.44;4809660;29;120164;-86
2021/12/04 12:38:53;;;;;;;42.20;21.05;;;;;;;9.57;67.77;99357.16;4795259;29;123340;-85
2021/12/04 12:41:31;;;;;;;44.05;20.23;;;;;;;9.66;68.04;99357.03;4825652;28;121647;-85
2021/12/04 12:44:03;;;;;;;44.03;19.85;;;;;;;9.64;68.27;99356.75;4794054;29;124184;-87
2021/12/04 12:46:46;;;;;;;38.70;19.25;;;;;;;9.60;67.64;99349.97;4810941;29;122792;-80
2021/12/04 12:49:25;;;;;;;36.88;19.08;;;;;;;9.50;67.63;99347.34;4809155;29;120003;-85
2021/12/04 12:51:57;;;;;;;34.85;18.48;;;;;;;9.45;67.36;99345.25;4805613;29;121325;-82
2021/12/04 12:54:47;;;;;;;35.75;18.27;;;;;;;9.36;67.42;99328.97;4793855;29;123085;-87
2021/12/04 12:57:22;;;;;;;37.55;19.40;;;;;;;9.47;67.56;99351.03;4796667;29;120804;-87
2021/12/04 13:13:54;;;;;;;42.10;20.52;;;;;;;9.44;67.89;99340.25;4809667;29;123160;-87
2021/12/04 13:16:30;;;;;;;38.78;20.83;;;;;;;9.46;68.12;99335.84;4792516;29;122959;-87
2021/12/04 13:19:14;;;;;;;;;;;;;;;;;;;;;
2021/12/04 13:21:49;;;;;;;42.97;21.27;;;;;;;9.42;67.86;99331.78;4812867;29;122121;-84
2021/12/04 13:24:18;;;;;;;48.60;22.13;;;;;;;9.41;68.14;99331.03;4795588;29;120391;-82
2021/12/04 13:26:47;;;;;;;47.42;22.48;;;;;;;9.43;68.30;99333.28;4792203;29;122960;-83
2021/12/04 13:29:19;;;;;;;44.92;22.08;;;;;;;9.20;68.12;99302.84;4810537;29;120981;-85
2021/12/04 13:31:57;;;;;;;38.25;19.88;;;;;;;9.49;67.98;99342.34;4809735;29;120220;-81
2021/12/04 13:34:29;;;;;;;39.05;20.02;;;;;;;9.21;67.87;99307.09;4790677;29;122182;-87
2021/12/04 13:36:58;;;;;;;40.40;19.98;;;;;;;9.40;67.53;99326.03;4789477;29;122991;-85
2021/12/04 13:39:27;;;;;;;40.05;20.08;;;;;;;9.29;67.83;99314.91;4795592;29;119752;-83
2021/12/04 13:41:57;;;;;;;36.88;19.85;;;;;;;9.33;68.02;99316.22;4793308;29;122900;-79
2021/12/04 13:44:28;;;;;;;36.42;20.27;;;;;;;9.35;67.86;99313.00;4812581;29;123490;-81
2021/12/04 13:47:08;;;;;;;37.58;20.20;;;;;;;9.44;67.68;99318.38;4807193;29;121828;-87
2021/12/04 13:50:00;;;;;;;39.83;20.95;;;;;;;9.38;67.88;99301.13;4809296;29;119951;-81
2021/12/04 13:52:32;;;;;;;42.53;21.58;;;;;;;9.40;67.92;99309.59;4795196;29;119881;-86
2021/12/04 13:55:11;;;;;;;45.45;21.63;;;;;;;9.43;67.97;99314.88;4794544;29;121335;-84
2021/12/04 13:57:39;;;;;;;42.97;22.85;;;;;;;9.46;67.73;99308.47;4794420;29;120747;-86
2021/12/04 14:00:06;;;;;;;47.28;22.63;;;;;;;9.47;67.92;99304.50;4796058;29;119467;-85
2021/12/04 14:02:32;;;;;;;45.45;23.17;;;;;;;9.53;67.87;99312.78;4793700;29;122265;-87
2021/12/04 14:05:13;;;;;;;46.70;23.85;;;;;;;9.56;67.67;99316.56;4808756;29;122217;-82
2021/12/04 14:07:52;;;;;;;45.47;23.35;;;;;;;9.56;68.41;99311.09;4798261;29;120192;-85
2021/12/04 14:10:25;;;;;;;42.30;23.15;;;;;;;9.48;67.09;99306.00;4793280;29;122008;-83
2021/12/04 14:12:53;;;;;;;45.67;23.42;;;;;;;9.54;67.46;99309.59;4825040;28;120823;-86
2021/12/04 14:15:22;;;;;;;48.42;25.08;;;;;;;9.38;67.08;99279.22;4795585;29;122529;-87
2021/12/04 14:17:56;;;;;;;48.45;26.48;;;;;;;9.31;67.43;99285.09;4820736;28;123444;-87
2021/12/04 14:20:26;;;;;;;48.88;25.50;;;;;;;9.21;67.34;99277.00;4794840;29;122941;-88
2021/12/04 14:23:00;;;;;;;49.47;25.98;;;;;;;9.17;67.42;99254.53;4789378;29;122165;-87
2021/12/04 14:25:30;;;;;;;50.15;25.92;;;;;;;9.23;66.88;99269.09;4779131;29;121986;-89
2021/12/04 14:28:20;;;;;;;50.22;27.17;;;;;;;9.59;67.62;99321.84;4814285;29;119801;-88
2021/12/04 14:31:02;;;;;;;54.45;28.30;;;;;;;9.39;67.42;99286.22;4805476;29;122715;-82
2021/12/04 14:33:41;;;;;;;54.20;27.50;;;;;;;9.37;67.04;99283.19;4792199;29;119696;-88
2021/12/04 14:36:44;;;;;;;;;;;;;;;;;;;;;